DW6157 Larvik NO current weather conditions

sailwx.info

Wind from 221

Air temperature 9.4° C
Dewpoint 6.9° C

Last reported at 2018-May-23 01:09 UTC.
Time now 2018-May-23 01:33 UTC

Location: N 59°05' E 010°08'.
View on Google Maps.

See reports from other nearby stations

  
Tides and Currents Weather Stations Pressure Air Temp Water Temp Dewpoint Dewpoint Depression Visibility Wind Speed Wind Dir Waves Ship Positions
date/time (UTC)wind fromknots sea level pressurealtimeterstation pressurevisibilityair tempwater tempwave heightnotes
2018-May-23 01:09 221 9.4
2018-May-23 00:54 221 9.4
2018-May-23 00:39 221 10.0
2018-May-23 00:24 221 10.6
2018-May-23 00:09 221 11.7
2018-May-22 23:54 221 11.7
2018-May-22 23:39 221 11.7
2018-May-22 23:24 221 12.2
2018-May-22 23:09 221 13.3
2018-May-22 22:54 221 12.8
2018-May-22 22:39 221 12.8
2018-May-22 22:24 221 13.3
2018-May-22 22:09 221 13.3
2018-May-22 21:54 221 14.4
2018-May-22 21:39 221 14.4
2018-May-22 21:24 221 15.0
2018-May-22 21:09 221 15.6
2018-May-22 20:54 221 15.6
2018-May-22 20:39 221 16.1
2018-May-22 20:24 221 16.7
2018-May-22 20:09 221 17.2
2018-May-22 19:54 221 17.8
2018-May-22 19:39 221 18.3
2018-May-22 19:24 221 18.9
2018-May-22 19:09 221 18.9
2018-May-22 18:54 227 18.9
2018-May-22 18:39 222 19.4
2018-May-22 18:24 237 0 gusting 5 20.0
2018-May-22 18:09 205 0 gusting 3 20.6
2018-May-22 17:54 215 1 gusting 7 21.1
2018-May-22 17:39 196 1 gusting 6 21.7
2018-May-22 17:24 282 2 gusting 7 22.2
2018-May-22 17:09 210 2 gusting 6 22.8
2018-May-22 16:54 290 0 gusting 7 22.8
2018-May-22 16:39 276 2 gusting 7 22.8
2018-May-22 16:24 256 2 gusting 6 23.3
2018-May-22 16:09 234 2 gusting 6 23.3
2018-May-22 15:54 200 1 gusting 6 23.9
2018-May-22 15:39 210 2 gusting 8 23.3
2018-May-22 15:24 205 5 gusting 10 22.8
2018-May-22 15:08 235 4 gusting 8 23.3
2018-May-22 14:53 205 5 gusting 9 23.3
2018-May-22 14:38 200 3 gusting 8 23.3
2018-May-22 14:23 223 4 gusting 9 23.3
2018-May-22 14:08 187 4 gusting 9 23.3
2018-May-22 13:53 189 2 gusting 9 23.3
2018-May-22 13:38 191 6 gusting 8 23.3
2018-May-22 13:23 235 2 gusting 7 23.3
2018-May-22 13:08 210 5 gusting 9 23.3
2018-May-22 12:53 163 2 gusting 7 23.3
2018-May-22 12:38 214 5 gusting 8 23.3
2018-May-22 12:23 231 3 gusting 7 23.3
2018-May-22 12:08 205 2 gusting 7 22.8
2018-May-22 11:53 200 5 gusting 9 22.8
2018-May-22 11:38 200 5 gusting 10 22.2
2018-May-22 11:23 245 3 gusting 9 22.2
2018-May-22 11:08 210 5 gusting 9 22.2
2018-May-22 10:53 221 2 gusting 7 21.7
2018-May-22 10:38 205 3 gusting 7 22.2
2018-May-22 10:23 200 2 gusting 8 21.7
2018-May-22 10:08 217 4 gusting 8 21.7
2018-May-22 09:53 205 3 gusting 7 21.7
2018-May-22 09:38 195 4 gusting 7 21.7
2018-May-22 09:23 210 1 gusting 5 21.1
2018-May-22 09:08 238 2 gusting 6 20.6
2018-May-22 08:53 200 2 gusting 6 20.0
2018-May-22 08:38 215 3 gusting 6 21.1
2018-May-22 08:23 200 2 gusting 6 21.1
2018-May-22 08:08 191 1 gusting 4 20.6
2018-May-22 07:53 235 1 gusting 5 20.0
2018-May-22 07:38 200 0 gusting 5 20.0
2018-May-22 07:23 195 20.0
2018-May-22 07:08 305 19.4
2018-May-22 06:53 200 20.0
2018-May-22 06:38 210 19.4
2018-May-22 06:23 205 2 gusting 4 19.4
2018-May-22 06:08 200 0 gusting 3 18.3
2018-May-22 05:52 205 1 gusting 2 17.8
2018-May-22 05:37 232 16.7
2018-May-22 05:22 232 13.9
2018-May-22 05:07 232 11.1
2018-May-22 04:52 232 10.0
2018-May-22 04:37 232 10.0
2018-May-22 04:22 232 8.9
2018-May-22 04:07 232 8.9
2018-May-22 03:52 232 8.3
2018-May-22 03:37 232 8.3
2018-May-22 03:22 232 8.3
2018-May-22 03:07 232 8.3
2018-May-22 02:52 232 7.8
2018-May-22 02:37 232 8.3
2018-May-22 02:22 232 8.3
2018-May-22 02:07 232 8.9
2018-May-22 01:52 232 8.9
2018-May-22 01:37 232 9.4
2018-May-22 01:22 232 8.9
2018-May-22 01:07 232 8.9
2018-May-22 00:52 232 9.4
2018-May-22 00:37 232 9.4
2018-May-22 00:22 232 10.6
2018-May-22 00:07 232 10.0
2018-May-21 23:52 232 9.4
2018-May-21 23:37 232 10.0
2018-May-21 23:22 232 9.4
2018-May-21 23:07 232 9.4
2018-May-21 22:52 232 10.6
2018-May-21 22:37 232 11.1
2018-May-21 22:22 232 11.1
2018-May-21 22:07 232 11.1
2018-May-21 21:51 232 11.7
2018-May-21 21:36 232 11.7
2018-May-21 21:21 232 12.2
2018-May-21 21:06 232 12.8
2018-May-21 20:51 232 12.8
2018-May-21 20:36 232 13.3
2018-May-21 20:21 232 13.9
2018-May-21 20:06 232 14.4
2018-May-21 19:51 232 15.6
2018-May-21 19:36 232 16.1
2018-May-21 19:21 232 16.7
2018-May-21 19:06 232 17.2
2018-May-21 18:51 232 17.8
2018-May-21 18:36 232 17.2
2018-May-21 18:21 232 17.2
2018-May-21 18:06 246 17.8
2018-May-21 17:51 210 17.8
2018-May-21 17:36 230 0 gusting 3 18.3
2018-May-21 17:21 210 0 gusting 2 18.3
2018-May-21 17:06 272 18.3
2018-May-21 16:51 237 0 gusting 3 18.9
2018-May-21 16:36 215 1 gusting 4 19.4
2018-May-21 16:21 210 0 gusting 6 19.4
2018-May-21 16:06 200 1 gusting 7 20.0
2018-May-21 15:51 205 1 gusting 6 20.0
2018-May-21 15:36 200 3 gusting 7 20.6
2018-May-21 15:21 200 2 gusting 6 20.6
2018-May-21 15:06 176 2 gusting 6 21.1
2018-May-21 14:51 194 1 gusting 6 21.1
2018-May-21 14:36 210 1 gusting 6 21.7
2018-May-21 14:21 210 0 gusting 5 21.7
2018-May-21 14:06 191 3 gusting 7 21.1
2018-May-21 13:51 210 3 gusting 8 21.7
2018-May-21 13:36 210 3 gusting 10 21.7
2018-May-21 13:21 173 2 gusting 8 21.7
2018-May-21 13:06 217 5 gusting 9 22.8
2018-May-21 12:51 236 1 gusting 7 22.8
2018-May-21 12:36 214 3 gusting 10 22.8
2018-May-21 12:21 205 4 gusting 9 22.8
2018-May-21 12:06 194 5 gusting 9 22.8
2018-May-21 11:51 210 3 gusting 6 22.2
2018-May-21 11:36 230 1 gusting 10 21.7
2018-May-21 11:21 229 2 gusting 7 21.7
2018-May-21 11:06 188 2 gusting 7 21.1
2018-May-21 10:51 194 3 gusting 7 21.7
2018-May-21 10:36 218 4 gusting 8 21.7
2018-May-21 10:20 174 5 gusting 11 21.7
2018-May-21 10:06 196 4 gusting 9 21.1
2018-May-21 09:50 217 4 gusting 8 21.1
2018-May-21 09:35 195 5 gusting 8 21.1
2018-May-21 09:20 210 4 gusting 8 21.7
2018-May-21 09:05 200 1 gusting 7 21.7
2018-May-21 08:50 167 2 gusting 6 21.7
2018-May-21 08:35 173 1 gusting 7 21.1
2018-May-21 08:20 220 2 gusting 6 21.1
2018-May-21 08:05 184 0 gusting 6 21.1
2018-May-21 07:50 200 1 gusting 5 20.6
2018-May-21 07:35 210 3 gusting 7 20.6
2018-May-21 07:20 205 0 gusting 5 21.1
2018-May-21 07:05 217 1 gusting 5 21.1
2018-May-21 06:50 181 1 gusting 4 21.1
2018-May-21 06:35 200 20.6
2018-May-21 06:20 200 20.0
2018-May-21 06:05 196 20.0
2018-May-21 05:50 219 18.9
2018-May-21 05:35 220 17.8
2018-May-21 05:20 220 16.7
2018-May-21 05:05 220 15.0
2018-May-21 04:50 220 14.4
2018-May-21 04:35 220 12.2
2018-May-21 04:20 220 11.1
2018-May-21 04:05 220 11.1
2018-May-21 03:50 220 10.6
2018-May-21 03:35 220 10.0
2018-May-21 03:20 220 10.0
2018-May-21 03:05 220 10.0
2018-May-21 02:50 220 10.0
2018-May-21 02:35 220 10.0
2018-May-21 02:20 220 10.6
2018-May-21 02:05 220 10.6
2018-May-21 01:50 220 11.1
2018-May-21 01:34 220 11.7
2018-May-21 01:19 220 11.7
2018-May-21 01:04 220 12.2